createdAt,value
2022-12-11T00:01:17.688Z,0.70
2022-12-11T00:03:47.102Z,0.70
2022-12-11T00:06:18.881Z,0.70
2022-12-11T00:08:47.877Z,0.70
2022-12-11T00:11:17.525Z,0.70
2022-12-11T00:13:46.531Z,0.70
2022-12-11T00:16:16.279Z,0.70
2022-12-11T00:18:44.903Z,0.70
2022-12-11T00:21:15.161Z,0.70
2022-12-11T00:23:43.569Z,0.70
2022-12-11T00:26:15.297Z,0.70
2022-12-11T00:28:44.418Z,0.70
2022-12-11T00:31:16.424Z,0.70
2022-12-11T00:33:45.214Z,0.70
2022-12-11T00:36:14.856Z,0.70
2022-12-11T00:38:43.708Z,0.80
2022-12-11T00:41:12.479Z,0.70
2022-12-11T00:43:40.480Z,0.70
2022-12-11T00:46:09.064Z,0.80
2022-12-11T00:48:38.525Z,0.70
2022-12-11T00:51:07.254Z,0.70
2022-12-11T00:53:35.282Z,0.80
2022-12-11T00:56:03.335Z,0.70
2022-12-11T00:58:31.262Z,0.80
2022-12-11T01:01:08.075Z,0.70
2022-12-11T01:03:36.132Z,0.70
2022-12-11T01:06:07.519Z,0.70
2022-12-11T01:08:38.684Z,0.70
2022-12-11T01:11:08.394Z,0.70
2022-12-11T01:13:36.398Z,0.70
2022-12-11T01:16:07.878Z,0.70
2022-12-11T01:18:36.379Z,0.70
2022-12-11T01:21:09.849Z,0.70
2022-12-11T01:23:38.694Z,0.60
2022-12-11T01:26:08.824Z,0.60
2022-12-11T01:28:37.496Z,0.60
2022-12-11T01:31:10.025Z,0.60
2022-12-11T01:33:39.220Z,0.60
2022-12-11T01:36:12.202Z,0.60
2022-12-11T01:38:40.351Z,0.50
2022-12-11T01:41:10.183Z,0.60
2022-12-11T01:44:00.389Z,0.50
2022-12-11T01:46:29.316Z,0.50
2022-12-11T01:48:58.459Z,0.50
2022-12-11T01:51:29.793Z,0.50
2022-12-11T01:54:02.076Z,0.50
2022-12-11T01:56:33.954Z,0.40
2022-12-11T01:59:07.054Z,0.40
2022-12-11T02:01:38.384Z,0.40
2022-12-11T02:04:09.248Z,0.40
2022-12-11T02:06:41.148Z,0.40
2022-12-11T02:09:13.288Z,0.40
2022-12-11T02:11:52.447Z,0.40
2022-12-11T02:14:29.615Z,0.40
2022-12-11T02:17:06.490Z,0.40
2022-12-11T02:19:49.503Z,0.40
2022-12-11T02:22:44.857Z,0.40
2022-12-11T02:25:20.271Z,0.40
2022-12-11T02:27:56.458Z,0.40
2022-12-11T02:30:27.693Z,0.40
2022-12-11T02:32:57.553Z,0.40
2022-12-11T02:35:32.143Z,0.40
2022-12-11T02:38:03.812Z,0.40
2022-12-11T02:40:36.459Z,0.40
2022-12-11T02:43:09.047Z,0.40
2022-12-11T02:45:41.887Z,0.40
2022-12-11T02:48:12.779Z,0.40
2022-12-11T02:50:47.408Z,0.40
2022-12-11T02:53:21.802Z,0.40
2022-12-11T02:55:54.382Z,0.40
2022-12-11T02:58:26.625Z,0.30
2022-12-11T03:00:56.117Z,0.40
2022-12-11T03:03:24.569Z,0.40
2022-12-11T03:05:53.675Z,0.40
2022-12-11T03:08:21.768Z,0.40
2022-12-11T03:10:49.884Z,0.40
2022-12-11T03:13:22.235Z,0.40
2022-12-11T03:16:05.287Z,0.40
2022-12-11T03:18:40.672Z,0.40
2022-12-11T03:21:15.717Z,0.40
2022-12-11T03:23:51.430Z,0.40
2022-12-11T03:26:22.143Z,0.40
2022-12-11T03:28:55.307Z,0.40
2022-12-11T03:31:30.462Z,0.40
2022-12-11T03:34:03.908Z,0.40
2022-12-11T03:36:35.018Z,0.40
2022-12-11T03:39:07.142Z,0.40
2022-12-11T03:41:38.510Z,0.30
2022-12-11T03:44:07.824Z,0.40
2022-12-11T03:46:40.473Z,0.40
2022-12-11T03:49:13.982Z,0.40
2022-12-11T03:51:43.733Z,0.40
2022-12-11T03:54:12.477Z,0.40
2022-12-11T03:56:41.903Z,0.40
2022-12-11T03:59:10.076Z,0.40
2022-12-11T04:01:39.953Z,0.40
2022-12-11T04:04:08.643Z,0.40
2022-12-11T04:06:36.678Z,0.40
2022-12-11T04:09:05.362Z,0.40
2022-12-11T04:11:36.411Z,0.40
2022-12-11T04:14:23.135Z,0.30
2022-12-11T04:16:54.360Z,0.40
2022-12-11T04:19:41.050Z,0.40
2022-12-11T04:22:28.530Z,0.30
2022-12-11T04:24:57.143Z,0.30
2022-12-11T04:27:42.928Z,0.30
2022-12-11T04:30:14.689Z,0.30
2022-12-11T04:32:44.062Z,0.30
2022-12-11T04:35:14.066Z,0.30
2022-12-11T04:37:42.846Z,0.20
2022-12-11T04:40:14.319Z,0.20
2022-12-11T04:42:42.985Z,0.20
2022-12-11T04:45:12.512Z,0.20
2022-12-11T04:47:43.154Z,0.10
2022-12-11T04:50:14.251Z,0.10
2022-12-11T04:52:42.927Z,0.00
2022-12-11T04:55:12.446Z,0.00
2022-12-11T04:57:41.271Z,0.00
2022-12-11T05:00:12.904Z,-0.10
2022-12-11T05:02:43.661Z,-0.10
2022-12-11T05:05:12.568Z,-0.10
2022-12-11T05:07:41.063Z,-0.10
2022-12-11T05:10:10.646Z,-0.10
2022-12-11T05:12:38.721Z,-0.10
2022-12-11T05:15:08.612Z,-0.10
2022-12-11T05:17:36.826Z,-0.10
2022-12-11T05:20:07.616Z,-0.20
2022-12-11T05:22:35.948Z,-0.20
2022-12-11T05:25:04.277Z,-0.20
2022-12-11T05:27:32.617Z,-0.30
2022-12-11T05:30:01.140Z,-0.20
2022-12-11T05:32:30.174Z,-0.30
2022-12-11T05:34:58.981Z,-0.30
2022-12-11T05:37:28.694Z,-0.40
2022-12-11T05:39:56.811Z,-0.40
2022-12-11T05:42:28.854Z,-0.40
2022-12-11T05:44:57.828Z,-0.40
2022-12-11T05:47:25.946Z,-0.40
2022-12-11T05:49:54.386Z,-0.50
2022-12-11T05:52:22.884Z,-0.50
2022-12-11T05:54:52.257Z,-0.60
2022-12-11T05:57:20.436Z,-0.60
2022-12-11T05:59:48.514Z,-0.50
2022-12-11T06:02:16.950Z,-0.60
2022-12-11T06:04:45.606Z,-0.60
2022-12-11T06:07:14.002Z,-0.60
2022-12-11T06:09:42.573Z,-0.70
2022-12-11T06:12:11.953Z,-0.70
2022-12-11T06:14:41.476Z,-0.70
2022-12-11T06:17:09.524Z,-0.80
2022-12-11T06:19:37.907Z,-0.80
2022-12-11T06:22:06.172Z,-0.70
2022-12-11T06:24:34.281Z,-0.70
2022-12-11T06:27:02.377Z,-0.70
2022-12-11T06:29:31.984Z,-0.60
2022-12-11T06:32:02.933Z,-0.60
2022-12-11T06:34:31.176Z,-0.60
2022-12-11T06:36:59.160Z,-0.60
2022-12-11T06:39:27.132Z,-0.50
2022-12-11T06:41:55.260Z,-0.50
2022-12-11T06:44:23.348Z,-0.50
2022-12-11T06:46:53.451Z,-0.40
2022-12-11T06:49:21.750Z,-0.40
2022-12-11T06:51:50.231Z,-0.40
2022-12-11T06:54:18.401Z,-0.40
2022-12-11T06:56:46.447Z,-0.30
2022-12-11T06:59:14.762Z,-0.30
2022-12-11T07:01:42.981Z,-0.30
2022-12-11T07:04:12.328Z,-0.30
2022-12-11T07:06:41.589Z,-0.30
2022-12-11T07:09:09.985Z,-0.30
2022-12-11T07:11:38.266Z,-0.30
2022-12-11T07:14:06.297Z,-0.30
2022-12-11T07:16:34.572Z,-0.20
2022-12-11T07:19:03.253Z,-0.20
2022-12-11T07:21:33.001Z,-0.20
2022-12-11T07:24:01.438Z,-0.20
2022-12-11T07:26:29.631Z,-0.20
2022-12-11T07:28:58.815Z,-0.20
2022-12-11T07:31:28.903Z,-0.20
2022-12-11T07:33:58.165Z,-0.10
2022-12-11T07:36:27.632Z,-0.10
2022-12-11T07:38:57.523Z,-0.10
2022-12-11T07:41:27.667Z,-0.10
2022-12-11T07:43:56.238Z,-0.10
2022-12-11T07:46:26.647Z,-0.10
2022-12-11T07:48:55.374Z,-0.10
2022-12-11T07:51:27.638Z,-0.10
2022-12-11T07:54:21.342Z,-0.10
2022-12-11T07:56:53.643Z,-0.10
2022-12-11T07:59:22.125Z,-0.10
2022-12-11T08:01:50.668Z,-0.10
2022-12-11T08:04:18.649Z,-0.10
2022-12-11T08:06:48.327Z,0.00
2022-12-11T08:09:21.033Z,0.00
2022-12-11T08:11:51.651Z,0.00
2022-12-11T08:14:20.133Z,0.00
2022-12-11T08:16:49.381Z,0.00
2022-12-11T08:19:17.935Z,0.00
2022-12-11T08:21:46.777Z,0.00
2022-12-11T08:24:16.375Z,0.00
2022-12-11T08:26:46.007Z,0.00
2022-12-11T08:29:15.655Z,0.00
2022-12-11T08:31:43.849Z,0.00
2022-12-11T08:34:13.826Z,0.00
2022-12-11T08:36:42.488Z,0.00
2022-12-11T08:39:10.477Z,-0.10
2022-12-11T08:41:39.234Z,0.00
2022-12-11T08:44:16.357Z,0.10
2022-12-11T08:46:46.801Z,0.00
2022-12-11T08:49:15.056Z,0.10
2022-12-11T08:51:43.243Z,0.10
2022-12-11T08:54:12.582Z,0.10
2022-12-11T08:56:40.606Z,0.20
2022-12-11T08:59:11.842Z,0.20
2022-12-11T09:01:40.181Z,0.20
2022-12-11T09:04:11.320Z,0.30
2022-12-11T09:06:39.427Z,0.40
2022-12-11T09:09:07.979Z,0.50
2022-12-11T09:11:38.090Z,0.50
2022-12-11T09:14:08.370Z,0.50
2022-12-11T09:16:41.751Z,0.40
2022-12-11T09:19:14.985Z,0.50
2022-12-11T09:21:44.139Z,0.60
2022-12-11T09:24:15.013Z,0.60
2022-12-11T09:26:43.665Z,0.70
2022-12-11T09:29:13.010Z,0.60
2022-12-11T09:31:41.757Z,0.50
2022-12-11T09:34:13.916Z,0.40
2022-12-11T09:36:44.176Z,0.50
2022-12-11T09:39:14.687Z,0.50
2022-12-11T09:41:50.653Z,0.60
2022-12-11T09:44:40.211Z,0.60
2022-12-11T09:47:23.345Z,0.60
2022-12-11T09:49:59.957Z,0.70
2022-12-11T09:52:35.220Z,0.70
2022-12-11T09:55:11.272Z,0.60
2022-12-11T09:57:49.103Z,0.60
2022-12-11T10:00:28.143Z,0.50
2022-12-11T10:03:24.457Z,0.50
2022-12-11T10:06:04.913Z,0.60
2022-12-11T10:08:39.092Z,0.70
2022-12-11T10:11:23.823Z,0.70
2022-12-11T10:14:00.408Z,0.70
2022-12-11T10:16:37.697Z,0.60
2022-12-11T10:19:06.776Z,0.60
2022-12-11T10:21:41.382Z,0.50
2022-12-11T10:24:41.876Z,0.60
2022-12-11T10:27:19.217Z,0.60
2022-12-11T10:29:49.283Z,0.80
2022-12-11T10:32:24.754Z,0.80
2022-12-11T10:34:58.819Z,0.80
2022-12-11T10:37:29.349Z,0.80
2022-12-11T10:39:57.728Z,0.70
2022-12-11T10:42:26.705Z,0.80
2022-12-11T10:44:59.925Z,0.90
2022-12-11T10:47:28.849Z,0.90
2022-12-11T10:49:58.847Z,0.90
2022-12-11T10:52:33.390Z,1.00
2022-12-11T10:55:03.694Z,1.00
2022-12-11T10:57:35.251Z,1.00
2022-12-11T11:00:06.902Z,1.00
2022-12-11T11:02:37.684Z,1.00
2022-12-11T11:05:14.842Z,0.90
2022-12-11T11:07:45.432Z,0.90
2022-12-11T11:10:18.970Z,1.00
2022-12-11T11:12:50.320Z,1.00
2022-12-11T11:15:23.543Z,0.90
2022-12-11T11:17:55.741Z,1.00
2022-12-11T11:20:25.718Z,1.10
2022-12-11T11:22:57.498Z,1.10
2022-12-11T11:25:27.378Z,1.10
2022-12-11T11:27:57.511Z,1.20
2022-12-11T11:30:28.051Z,1.30
2022-12-11T11:33:00.759Z,1.40
2022-12-11T11:35:30.209Z,1.30
2022-12-11T11:38:07.085Z,1.20
2022-12-11T11:40:40.567Z,1.30
2022-12-11T11:43:18.191Z,1.10
2022-12-11T11:45:52.783Z,1.10
2022-12-11T11:48:37.792Z,1.10
2022-12-11T11:51:16.209Z,1.10
2022-12-11T11:53:51.681Z,1.20
2022-12-11T11:56:23.785Z,1.10
2022-12-11T11:59:01.128Z,1.20
2022-12-11T12:01:30.115Z,1.20
2022-12-11T12:03:59.768Z,1.20
2022-12-11T12:06:48.955Z,1.10
2022-12-11T12:09:32.525Z,1.30
2022-12-11T12:12:18.227Z,1.30
2022-12-11T12:15:02.947Z,1.40
2022-12-11T12:17:42.896Z,1.30
2022-12-11T12:20:19.161Z,1.20
2022-12-11T12:22:58.547Z,1.20
2022-12-11T12:25:33.990Z,1.30
2022-12-11T12:28:11.958Z,1.20
2022-12-11T12:30:50.745Z,1.20
2022-12-11T12:33:32.465Z,1.00
2022-12-11T12:36:07.532Z,0.80
2022-12-11T12:38:48.271Z,0.90
2022-12-11T12:41:22.953Z,1.00
2022-12-11T12:44:11.480Z,0.90
2022-12-11T12:46:50.955Z,0.90
2022-12-11T12:49:33.996Z,0.90
2022-12-11T12:52:04.294Z,0.90
2022-12-11T12:54:34.794Z,0.90
2022-12-11T12:57:07.923Z,0.80
2022-12-11T12:59:36.622Z,0.80
2022-12-11T13:02:06.738Z,0.80
2022-12-11T13:04:58.473Z,0.80
2022-12-11T13:07:30.710Z,0.80
2022-12-11T13:10:09.076Z,0.70
2022-12-11T13:12:46.843Z,0.70
2022-12-11T13:15:33.576Z,0.70
2022-12-11T13:18:03.735Z,0.60
2022-12-11T13:20:33.708Z,0.70
2022-12-11T13:23:19.566Z,0.70
2022-12-11T13:25:54.071Z,0.80
2022-12-11T13:28:27.580Z,0.80
2022-12-11T13:31:02.027Z,0.80
2022-12-11T13:33:31.052Z,0.80
2022-12-11T13:36:30.289Z,0.80
2022-12-11T13:39:02.202Z,0.70
2022-12-11T13:41:34.098Z,0.70
2022-12-11T13:44:05.491Z,0.70
2022-12-11T13:46:38.265Z,0.70
2022-12-11T13:49:08.138Z,0.60
2022-12-11T13:51:38.411Z,0.70
2022-12-11T13:54:17.047Z,0.70
2022-12-11T13:57:01.402Z,0.60
2022-12-11T13:59:34.197Z,0.60
2022-12-11T14:02:07.079Z,0.60
2022-12-11T14:04:36.111Z,0.60
2022-12-11T14:07:08.619Z,0.60
2022-12-11T14:09:40.400Z,0.60
2022-12-11T14:12:14.241Z,0.60
2022-12-11T14:14:46.790Z,0.60
2022-12-11T14:17:18.424Z,0.50
2022-12-11T14:19:48.641Z,0.50
2022-12-11T14:22:22.683Z,0.40
2022-12-11T14:24:52.311Z,0.40
2022-12-11T14:27:21.433Z,0.40
2022-12-11T14:29:51.415Z,0.50
2022-12-11T14:32:25.964Z,0.40
2022-12-11T14:34:55.291Z,0.40
2022-12-11T14:37:26.136Z,0.40
2022-12-11T14:40:00.762Z,0.40
2022-12-11T14:42:31.689Z,0.40
2022-12-11T14:45:08.634Z,0.40
2022-12-11T14:47:42.346Z,0.40
2022-12-11T14:50:18.395Z,0.40
2022-12-11T14:52:51.033Z,0.40
2022-12-11T14:55:23.131Z,0.40
2022-12-11T14:57:58.997Z,0.30
2022-12-11T15:00:30.898Z,0.30
2022-12-11T15:03:02.598Z,0.30
2022-12-11T15:05:35.793Z,0.20
2022-12-11T15:08:24.736Z,0.20
2022-12-11T15:11:07.110Z,0.20
2022-12-11T15:13:37.431Z,0.20
2022-12-11T15:16:09.414Z,0.20
2022-12-11T15:18:41.486Z,0.20
2022-12-11T15:21:12.261Z,0.20
2022-12-11T15:23:51.862Z,0.20
2022-12-11T15:26:21.375Z,0.10
2022-12-11T15:29:00.166Z,0.10
2022-12-11T15:31:31.873Z,0.10
2022-12-11T15:34:00.308Z,0.10
2022-12-11T15:36:34.680Z,0.10
2022-12-11T15:39:04.408Z,0.00
2022-12-11T15:41:34.696Z,-0.10
2022-12-11T15:44:04.748Z,-0.10
2022-12-11T15:46:38.145Z,-0.20
2022-12-11T15:49:13.007Z,-0.20
2022-12-11T15:51:43.412Z,-0.30
2022-12-11T15:54:11.987Z,-0.30
2022-12-11T15:56:40.375Z,-0.40
2022-12-11T15:59:08.440Z,-0.40
2022-12-11T16:01:38.469Z,-0.50
2022-12-11T16:04:07.272Z,-0.50
2022-12-11T16:06:35.397Z,-0.60
2022-12-11T16:09:05.159Z,-0.60
2022-12-11T16:11:33.561Z,-0.70
2022-12-11T16:14:04.633Z,-0.70
2022-12-11T16:16:34.453Z,-0.80
2022-12-11T16:19:03.836Z,-0.90
2022-12-11T16:21:32.410Z,-0.90
2022-12-11T16:24:01.358Z,-0.90
2022-12-11T16:26:29.857Z,-0.90
2022-12-11T16:28:57.867Z,-1.00
2022-12-11T16:31:25.907Z,-1.00
2022-12-11T16:33:54.631Z,-1.00
2022-12-11T16:36:25.094Z,-1.10
2022-12-11T16:38:54.515Z,-1.10
2022-12-11T16:41:23.479Z,-1.10
2022-12-11T16:43:51.527Z,-1.10
2022-12-11T16:46:20.196Z,-1.20
2022-12-11T16:48:48.637Z,-1.20
2022-12-11T16:51:17.244Z,-1.20
2022-12-11T16:53:47.197Z,-1.30
2022-12-11T16:56:15.494Z,-1.30
2022-12-11T16:58:43.488Z,-1.30
2022-12-11T17:01:13.979Z,-1.30
2022-12-11T17:03:43.427Z,-1.30
2022-12-11T17:06:14.059Z,-1.30
2022-12-11T17:08:42.929Z,-1.30
2022-12-11T17:11:15.377Z,-1.30
2022-12-11T17:13:44.340Z,-1.20
2022-12-11T17:16:14.513Z,-1.20
2022-12-11T17:18:43.405Z,-1.20
2022-12-11T17:21:15.484Z,-1.10
2022-12-11T17:23:43.998Z,-1.10
2022-12-11T17:26:14.997Z,-1.10
2022-12-11T17:28:43.261Z,-1.10
2022-12-11T17:31:14.512Z,-1.10
2022-12-11T17:33:42.643Z,-1.10
2022-12-11T17:36:14.745Z,-1.20
2022-12-11T17:38:43.298Z,-1.10
2022-12-11T17:41:20.025Z,-1.10
2022-12-11T17:43:50.439Z,-1.10
2022-12-11T17:46:20.666Z,-1.00
2022-12-11T17:48:49.821Z,-1.00
2022-12-11T17:51:23.619Z,-1.00
2022-12-11T17:53:55.256Z,-1.00
2022-12-11T17:56:23.965Z,-1.00
2022-12-11T17:58:53.363Z,-1.00
2022-12-11T18:01:21.895Z,-1.00
2022-12-11T18:03:50.232Z,-1.00
2022-12-11T18:06:20.669Z,-1.00
2022-12-11T18:08:48.825Z,-1.00
2022-12-11T18:11:21.585Z,-1.00
2022-12-11T18:13:54.151Z,-1.00
2022-12-11T18:16:25.462Z,-0.90
2022-12-11T18:18:53.754Z,-0.90
2022-12-11T18:21:24.170Z,-0.90
2022-12-11T18:23:52.856Z,-0.90
2022-12-11T18:26:21.733Z,-0.90
2022-12-11T18:28:51.782Z,-0.90
2022-12-11T18:31:22.938Z,-0.90
2022-12-11T18:33:51.499Z,-0.90
2022-12-11T18:36:21.109Z,-0.90
2022-12-11T18:38:49.866Z,-0.90
2022-12-11T18:41:22.162Z,-0.80
2022-12-11T18:43:50.767Z,-0.90
2022-12-11T18:46:22.638Z,-0.90
2022-12-11T18:48:51.464Z,-0.80
2022-12-11T18:51:22.610Z,-0.80
2022-12-11T18:53:50.849Z,-0.80
2022-12-11T18:56:20.477Z,-0.80
2022-12-11T18:58:49.007Z,-0.90
2022-12-11T19:01:20.464Z,-0.90
2022-12-11T19:03:51.355Z,-1.00
2022-12-11T19:06:21.889Z,-1.00
2022-12-11T19:08:50.084Z,-1.10
2022-12-11T19:11:19.725Z,-1.10
2022-12-11T19:13:48.414Z,-1.20
2022-12-11T19:16:18.158Z,-1.20
2022-12-11T19:18:46.671Z,-1.20
2022-12-11T19:21:17.664Z,-1.20
2022-12-11T19:23:46.283Z,-1.30
2022-12-11T19:26:19.642Z,-1.30
2022-12-11T19:28:49.222Z,-1.30
2022-12-11T19:31:20.269Z,-1.30
2022-12-11T19:33:49.408Z,-1.40
2022-12-11T19:36:22.457Z,-1.40
2022-12-11T19:38:51.072Z,-1.40
2022-12-11T19:41:21.883Z,-1.40
2022-12-11T19:43:51.141Z,-1.40
2022-12-11T19:46:20.364Z,-1.40
2022-12-11T19:48:50.907Z,-1.50
2022-12-11T19:51:22.449Z,-1.40
2022-12-11T19:53:51.690Z,-1.50
2022-12-11T19:56:20.244Z,-1.50
2022-12-11T19:58:48.732Z,-1.50
2022-12-11T20:01:20.951Z,-1.60
2022-12-11T20:03:49.733Z,-1.60
2022-12-11T20:06:18.064Z,-1.70
2022-12-11T20:08:47.838Z,-1.70
2022-12-11T20:11:18.612Z,-1.80
2022-12-11T20:13:47.612Z,-1.80
2022-12-11T20:16:16.991Z,-1.80
2022-12-11T20:18:45.263Z,-1.90
2022-12-11T20:21:16.432Z,-1.90
2022-12-11T20:23:45.329Z,-1.90
2022-12-11T20:26:16.768Z,-2.00
2022-12-11T20:28:47.933Z,-2.00
2022-12-11T20:31:20.445Z,-2.20
2022-12-11T20:33:49.848Z,-2.10
2022-12-11T20:36:21.337Z,-2.20
2022-12-11T20:38:49.760Z,-2.20
2022-12-11T20:41:22.468Z,-2.30
2022-12-11T20:43:53.254Z,-2.30
2022-12-11T20:46:22.863Z,-2.30
2022-12-11T20:48:51.726Z,-2.30
2022-12-11T20:51:25.781Z,-2.30
2022-12-11T20:53:58.375Z,-2.30
2022-12-11T20:56:30.402Z,-2.40
2022-12-11T20:58:59.886Z,-2.40
2022-12-11T21:01:30.554Z,-2.40
2022-12-11T21:03:59.939Z,-2.50
2022-12-11T21:06:31.735Z,-2.50
2022-12-11T21:09:02.060Z,-2.50
2022-12-11T21:11:31.417Z,-2.50
2022-12-11T21:13:59.429Z,-2.60
2022-12-11T21:16:27.987Z,-2.60
2022-12-11T21:18:56.965Z,-2.60
2022-12-11T21:21:25.408Z,-2.60
2022-12-11T21:23:53.492Z,-2.60
2022-12-11T21:26:22.359Z,-2.70
2022-12-11T21:28:53.264Z,-2.70
2022-12-11T21:31:21.567Z,-2.70
2022-12-11T21:33:49.679Z,-2.70
2022-12-11T21:36:18.830Z,-2.70
2022-12-11T21:38:47.837Z,-2.70
2022-12-11T21:41:19.005Z,-2.70
2022-12-11T21:46:38.364Z,-2.60
2022-12-11T21:49:08.190Z,-2.70
2022-12-11T21:51:41.508Z,-2.60
2022-12-11T21:54:15.997Z,-2.60
2022-12-11T21:56:44.460Z,-2.60
2022-12-11T21:59:12.504Z,-2.60
2022-12-11T22:01:45.908Z,-2.50
2022-12-11T22:04:15.873Z,-2.60
2022-12-11T22:06:47.085Z,-2.50
2022-12-11T22:09:15.723Z,-2.50
2022-12-11T22:11:45.112Z,-2.50
2022-12-11T22:14:13.806Z,-2.50
2022-12-11T22:16:43.547Z,-2.50
2022-12-11T22:19:12.193Z,-2.40
2022-12-11T22:21:40.779Z,-2.40
2022-12-11T22:24:09.053Z,-2.40
2022-12-11T22:26:37.802Z,-2.40
2022-12-11T22:29:05.868Z,-2.40
2022-12-11T22:31:34.042Z,-2.30
2022-12-11T22:34:03.361Z,-2.30
2022-12-11T22:36:31.360Z,-2.30
2022-12-11T22:39:01.544Z,-2.20
2022-12-11T22:41:32.113Z,-2.20
2022-12-11T22:44:01.357Z,-2.20
2022-12-11T22:46:31.285Z,-2.20
2022-12-11T22:49:00.701Z,-2.20
2022-12-11T22:51:30.498Z,-2.10
2022-12-11T22:54:00.461Z,-2.10
2022-12-11T22:56:28.540Z,-2.10
2022-12-11T22:58:57.871Z,-2.10
2022-12-11T23:01:27.422Z,-2.00
2022-12-11T23:03:55.784Z,-2.00
2022-12-11T23:06:25.823Z,-2.00
2022-12-11T23:08:59.584Z,-2.00
2022-12-11T23:11:30.119Z,-1.90
2022-12-11T23:13:58.747Z,-1.90
2022-12-11T23:16:27.820Z,-1.90
2022-12-11T23:18:57.537Z,-1.80
2022-12-11T23:21:27.207Z,-1.90
2022-12-11T23:23:57.258Z,-1.80
2022-12-11T23:26:29.289Z,-1.80
2022-12-11T23:28:58.759Z,-1.90
2022-12-11T23:31:28.418Z,-1.80
2022-12-11T23:33:56.464Z,-1.80
2022-12-11T23:36:24.906Z,-1.80
2022-12-11T23:38:55.085Z,-1.80
2022-12-11T23:41:25.936Z,-1.80
2022-12-11T23:43:54.046Z,-1.80
2022-12-11T23:46:24.714Z,-1.80
2022-12-11T23:48:53.954Z,-1.80
2022-12-11T23:51:23.626Z,-1.80
2022-12-11T23:53:51.837Z,-1.80
2022-12-11T23:56:23.543Z,-1.80
2022-12-11T23:58:53.879Z,-1.80
